Time;durP1;ratioP1;P1;durP2;ratioP2;P2;SDS_P1;SDS_P2;PMS_P1;PMS_P2;Temp;Humidity;BMP_temperature;BMP_pressure;BME280_temperature;BME280_humidity;BME280_pressure;Samples;Min_cycle;Max_cycle;Signal;HPM_P1;HPM_P2
2023/11/09 00:01:48;;;;;;;0.80;0.40;;;;;;;;;;5053106;28;20028;-75
2023/11/09 00:04:14;;;;;;;0.85;0.47;;;;;;;;;;5051906;28;20021;-76
2023/11/09 00:06:40;;;;;;;0.85;0.45;;;;;;;;;;5054919;28;20419;-76
2023/11/09 00:09:06;;;;;;;0.77;0.50;;;;;;;;;;5052874;28;20014;-76
2023/11/09 00:11:34;;;;;;;0.60;0.60;;;;;;;;;;5053205;28;20029;-77
2023/11/09 00:14:04;;;;;;;1.02;0.60;;;;;;;;;;5038066;28;20044;-75
2023/11/09 00:16:31;;;;;;;0.40;0.40;;;;;;;;;;5051761;28;20052;-76
2023/11/09 00:18:57;;;;;;;1.30;0.65;;;;;;;;;;5053845;28;20570;-76
2023/11/09 00:21:23;;;;;;;0.98;0.50;;;;;;;;;;5050484;28;20048;-76
2023/11/09 00:23:49;;;;;;;1.25;0.47;;;;;;;;;;5046611;28;20029;-76
2023/11/09 00:26:15;;;;;;;0.40;0.40;;;;;;;;;;5051191;28;20170;-76
2023/11/09 00:28:42;;;;;;;0.40;0.35;;;;;;;;;;5053220;28;20051;-76
2023/11/09 00:31:08;;;;;;;0.77;0.43;;;;;;;;;;5063252;28;20032;-76
2023/11/09 00:33:34;;;;;;;0.25;0.25;;;;;;;;;;5035872;28;20028;-76
2023/11/09 00:36:00;;;;;;;1.17;0.40;;;;;;;;;;5055172;28;20091;-76
2023/11/09 00:38:26;;;;;;;0.70;0.40;;;;;;;;;;5054920;28;20376;-76
2023/11/09 00:40:52;;;;;;;0.43;0.43;;;;;;;;;;5056028;28;20472;-75
2023/11/09 00:43:18;;;;;;;0.40;0.40;;;;;;;;;;5053728;28;20020;-75
2023/11/09 00:45:45;;;;;;;0.47;0.30;;;;;;;;;;5054154;28;20025;-77
2023/11/09 00:48:11;;;;;;;1.48;0.38;;;;;;;;;;5055320;28;20047;-76
2023/11/09 00:50:37;;;;;;;0.52;0.40;;;;;;;;;;5053776;28;20029;-76
2023/11/09 00:53:03;;;;;;;0.38;0.38;;;;;;;;;;5037165;28;20025;-76
2023/11/09 00:55:29;;;;;;;0.50;0.38;;;;;;;;;;5052810;28;20082;-75
2023/11/09 00:57:55;;;;;;;0.30;0.30;;;;;;;;;;5055777;28;20051;-75
2023/11/09 01:00:21;;;;;;;0.20;0.20;;;;;;;;;;5055325;28;20025;-75
2023/11/09 01:02:49;;;;;;;0.30;0.30;;;;;;;;;;5055180;28;20463;-76
2023/11/09 01:05:15;;;;;;;0.80;0.30;;;;;;;;;;5054328;28;20020;-75
2023/11/09 01:07:41;;;;;;;1.25;0.70;;;;;;;;;;5055238;28;20021;-77
2023/11/09 01:10:08;;;;;;;1.30;0.55;;;;;;;;;;5055142;28;20019;-76
2023/11/09 01:12:34;;;;;;;0.50;0.38;;;;;;;;;;5053952;28;20017;-76
2023/11/09 01:15:02;;;;;;;1.08;0.47;;;;;;;;;;5053402;28;20017;-76
2023/11/09 01:17:28;;;;;;;0.95;0.50;;;;;;;;;;5050563;28;20009;-76
2023/11/09 01:19:54;;;;;;;0.30;0.30;;;;;;;;;;5054385;28;20111;-76
2023/11/09 01:22:20;;;;;;;0.60;0.40;;;;;;;;;;5054699;28;20078;-76
2023/11/09 01:24:47;;;;;;;0.65;0.28;;;;;;;;;;5036665;28;20079;-76
2023/11/09 01:27:13;;;;;;;0.63;0.20;;;;;;;;;;5049290;28;20505;-77
2023/11/09 01:29:39;;;;;;;0.38;0.20;;;;;;;;;;5053082;28;20074;-76
2023/11/09 01:32:06;;;;;;;0.40;0.40;;;;;;;;;;5061112;28;20088;-76
2023/11/09 01:34:32;;;;;;;0.63;0.35;;;;;;;;;;5065403;28;20017;-76
2023/11/09 01:36:58;;;;;;;0.28;0.20;;;;;;;;;;5056747;28;20376;-76
2023/11/09 01:39:24;;;;;;;0.95;0.30;;;;;;;;;;5053697;28;20021;-76
2023/11/09 01:41:50;;;;;;;0.35;0.20;;;;;;;;;;5054701;28;20024;-76
2023/11/09 01:44:16;;;;;;;0.30;0.30;;;;;;;;;;5052950;28;20111;-76
2023/11/09 01:46:44;;;;;;;0.63;0.40;;;;;;;;;;5049704;28;20033;-77
2023/11/09 01:49:11;;;;;;;1.00;0.30;;;;;;;;;;5052055;28;20451;-77
2023/11/09 01:51:37;;;;;;;0.20;0.20;;;;;;;;;;5054088;28;20075;-76
2023/11/09 01:54:04;;;;;;;0.70;0.30;;;;;;;;;;5054127;28;20013;-76
2023/11/09 01:56:30;;;;;;;0.50;0.30;;;;;;;;;;5051338;28;20044;-75
2023/11/09 01:58:57;;;;;;;0.20;0.20;;;;;;;;;;5052693;28;20055;-75
2023/11/09 02:01:25;;;;;;;0.47;0.20;;;;;;;;;;5054366;28;20016;-75
2023/11/09 02:03:52;;;;;;;0.28;0.28;;;;;;;;;;5054111;28;20382;-76
2023/11/09 02:06:18;;;;;;;0.30;0.20;;;;;;;;;;5054187;28;20108;-76
2023/11/09 02:08:47;;;;;;;0.40;0.10;;;;;;;;;;5052489;28;20029;-76
2023/11/09 02:11:13;;;;;;;0.30;0.30;;;;;;;;;;5052232;28;20479;-76
2023/11/09 02:13:39;;;;;;;0.57;0.17;;;;;;;;;;5053573;28;20070;-75
2023/11/09 02:16:06;;;;;;;0.28;0.20;;;;;;;;;;5053359;28;20031;-75
2023/11/09 02:18:33;;;;;;;0.60;0.50;;;;;;;;;;5043543;28;20449;-75
2023/11/09 02:20:59;;;;;;;0.22;0.20;;;;;;;;;;5052868;28;20029;-76
2023/11/09 02:23:27;;;;;;;0.10;0.10;;;;;;;;;;5053643;28;20028;-76
2023/11/09 02:25:54;;;;;;;0.30;0.30;;;;;;;;;;5053719;28;20503;-76
2023/11/09 02:28:20;;;;;;;0.77;0.40;;;;;;;;;;5049737;28;20021;-75
2023/11/09 02:30:46;;;;;;;0.22;0.20;;;;;;;;;;5053898;28;20029;-75
2023/11/09 02:33:13;;;;;;;0.55;0.30;;;;;;;;;;5053426;28;20021;-75
2023/11/09 02:35:40;;;;;;;0.20;0.20;;;;;;;;;;5053202;28;20124;-75
2023/11/09 02:38:08;;;;;;;0.20;0.20;;;;;;;;;;5052817;28;20714;-75
2023/11/09 02:40:34;;;;;;;0.10;0.10;;;;;;;;;;5053125;28;20060;-74
2023/11/09 02:43:01;;;;;;;0.43;0.28;;;;;;;;;;5051953;28;20017;-77
2023/11/09 02:45:28;;;;;;;0.20;0.10;;;;;;;;;;5053149;28;20369;-75
2023/11/09 02:47:54;;;;;;;0.22;0.22;;;;;;;;;;5052832;28;20582;-75
2023/11/09 02:50:21;;;;;;;0.20;0.20;;;;;;;;;;5038730;28;20539;-76
2023/11/09 02:52:48;;;;;;;1.17;0.30;;;;;;;;;;5050108;28;20028;-75
2023/11/09 02:55:14;;;;;;;0.40;0.20;;;;;;;;;;5052828;28;20016;-75
2023/11/09 02:57:40;;;;;;;0.43;0.20;;;;;;;;;;5034665;28;20067;-75
2023/11/09 03:00:07;;;;;;;0.40;0.20;;;;;;;;;;5050876;28;20448;-76
2023/11/09 03:02:34;;;;;;;0.22;0.22;;;;;;;;;;5051358;28;20513;-75
2023/11/09 03:05:01;;;;;;;0.10;0.10;;;;;;;;;;5052597;28;20119;-75
2023/11/09 03:07:27;;;;;;;0.30;0.10;;;;;;;;;;5049584;28;20059;-76
2023/11/09 03:09:54;;;;;;;0.13;0.13;;;;;;;;;;5053701;28;20029;-75
2023/11/09 03:12:20;;;;;;;0.47;0.20;;;;;;;;;;5052822;28;20328;-75
2023/11/09 03:14:47;;;;;;;0.13;0.13;;;;;;;;;;5053459;28;20043;-75
2023/11/09 03:17:13;;;;;;;0.22;0.13;;;;;;;;;;5059629;28;20017;-75
2023/11/09 03:19:40;;;;;;;0.45;0.20;;;;;;;;;;5031345;28;20026;-75
2023/11/09 03:22:11;;;;;;;0.22;0.17;;;;;;;;;;5044495;28;20017;-76
2023/11/09 03:24:40;;;;;;;0.20;0.20;;;;;;;;;;5052585;28;20021;-75
2023/11/09 03:27:09;;;;;;;0.20;0.10;;;;;;;;;;5044579;28;20013;-76
2023/11/09 03:29:35;;;;;;;0.20;0.20;;;;;;;;;;5030675;28;20025;-75
2023/11/09 03:32:03;;;;;;;0.38;0.15;;;;;;;;;;5051586;28;20025;-76
2023/11/09 03:34:29;;;;;;;0.30;0.13;;;;;;;;;;5052805;28;20024;-76
2023/11/09 03:36:55;;;;;;;0.20;0.08;;;;;;;;;;5052877;28;20086;-76
2023/11/09 03:39:21;;;;;;;0.20;0.13;;;;;;;;;;5051858;28;20040;-76
2023/11/09 03:41:47;;;;;;;0.20;0.20;;;;;;;;;;5048941;28;20052;-76
2023/11/09 03:44:14;;;;;;;0.10;0.10;;;;;;;;;;5053174;28;20084;-76
2023/11/09 03:46:40;;;;;;;0.08;0.00;;;;;;;;;;5053009;28;20084;-75
2023/11/09 03:49:07;;;;;;;0.10;0.10;;;;;;;;;;5048542;28;20017;-76
2023/11/09 03:51:33;;;;;;;0.10;0.10;;;;;;;;;;5043995;28;20029;-76
2023/11/09 03:53:59;;;;;;;0.10;0.10;;;;;;;;;;5052397;28;20025;-76
2023/11/09 03:56:26;;;;;;;0.13;0.08;;;;;;;;;;5052870;28;20032;-76
2023/11/09 03:58:52;;;;;;;0.38;0.17;;;;;;;;;;5053965;28;20033;-75
2023/11/09 04:01:19;;;;;;;0.10;0.10;;;;;;;;;;5055848;28;20029;-75
2023/11/09 04:03:45;;;;;;;0.45;0.20;;;;;;;;;;5056533;28;20059;-76
2023/11/09 04:06:15;;;;;;;0.40;0.10;;;;;;;;;;5053887;28;20021;-75
2023/11/09 04:08:41;;;;;;;0.10;0.03;;;;;;;;;;5056962;28;20451;-75
2023/11/09 04:11:08;;;;;;;0.10;0.10;;;;;;;;;;5062005;28;20029;-75
2023/11/09 04:13:34;;;;;;;0.30;0.15;;;;;;;;;;5066263;28;20028;-75
2023/11/09 04:16:00;;;;;;;0.10;0.10;;;;;;;;;;5040463;28;20025;-77
2023/11/09 04:18:26;;;;;;;0.00;0.00;;;;;;;;;;5056628;28;20025;-75
2023/11/09 04:20:52;;;;;;;0.10;0.10;;;;;;;;;;5045986;28;20087;-75
2023/11/09 04:23:18;;;;;;;0.10;0.10;;;;;;;;;;5056050;28;20332;-75
2023/11/09 04:25:45;;;;;;;0.20;0.10;;;;;;;;;;5055186;28;20430;-75
2023/11/09 04:28:11;;;;;;;0.20;0.10;;;;;;;;;;5063505;28;20013;-75
2023/11/09 04:30:37;;;;;;;0.00;0.00;;;;;;;;;;5057903;28;20025;-75
2023/11/09 04:33:09;;;;;;;0.13;0.10;;;;;;;;;;5056290;28;20475;-76
2023/11/09 04:35:36;;;;;;;0.00;0.00;;;;;;;;;;5054342;28;20037;-75
2023/11/09 04:38:02;;;;;;;0.15;0.10;;;;;;;;;;5056860;28;20135;-76
2023/11/09 04:40:30;;;;;;;0.20;0.20;;;;;;;;;;5054920;28;20449;-76
2023/11/09 04:42:56;;;;;;;0.10;0.10;;;;;;;;;;5056778;28;20455;-77
2023/11/09 04:45:25;;;;;;;0.30;0.20;;;;;;;;;;5055515;28;20557;-76
2023/11/09 04:47:55;;;;;;;0.98;0.20;;;;;;;;;;5057155;28;20445;-76
2023/11/09 04:50:28;;;;;;;0.50;0.30;;;;;;;;;;5035587;28;20029;-76
2023/11/09 04:53:03;;;;;;;;;;;;;;;;;;5052377;28;20029;-76
2023/11/09 04:55:42;;;;;;;0.20;0.10;;;;;;;;;;5056446;28;20035;-76
2023/11/09 05:06:49;;;;;;;0.20;0.20;;;;;;;;;;5072418;28;20107;-75
2023/11/09 05:09:15;;;;;;;0.30;0.30;;;;;;;;;;5063114;28;20192;-75
2023/11/09 05:11:41;;;;;;;0.55;0.43;;;;;;;;;;5072956;28;20017;-76
2023/11/09 05:14:07;;;;;;;0.28;0.17;;;;;;;;;;5071095;28;20017;-75
2023/11/09 05:16:33;;;;;;;0.20;0.20;;;;;;;;;;5074917;28;20134;-74
2023/11/09 05:19:02;;;;;;;0.38;0.35;;;;;;;;;;5082194;28;20029;-75
2023/11/09 05:21:28;;;;;;;0.80;0.20;;;;;;;;;;5058061;28;20132;-75
2023/11/09 05:23:54;;;;;;;0.30;0.25;;;;;;;;;;5038627;28;20383;-76
2023/11/09 05:26:21;;;;;;;0.40;0.40;;;;;;;;;;5055625;28;20017;-76
2023/11/09 05:28:48;;;;;;;0.60;0.40;;;;;;;;;;5058955;28;20075;-75
2023/11/09 05:31:14;;;;;;;0.85;0.40;;;;;;;;;;5040190;28;20021;-76
2023/11/09 05:33:41;;;;;;;0.40;0.30;;;;;;;;;;5056630;28;20029;-76
2023/11/09 05:36:07;;;;;;;0.82;0.20;;;;;;;;;;5052873;28;20052;-76
2023/11/09 05:38:39;;;;;;;0.25;0.25;;;;;;;;;;5054287;28;20063;-76
2023/11/09 05:41:05;;;;;;;0.60;0.40;;;;;;;;;;5054769;28;20071;-76
2023/11/09 05:43:31;;;;;;;0.20;0.20;;;;;;;;;;5052951;28;20028;-76
2023/11/09 05:45:58;;;;;;;0.32;0.20;;;;;;;;;;5054138;28;20023;-76
2023/11/09 05:48:24;;;;;;;0.50;0.40;;;;;;;;;;5050932;28;20020;-76
2023/11/09 05:50:51;;;;;;;0.55;0.38;;;;;;;;;;5053763;28;20499;-77
2023/11/09 05:53:18;;;;;;;0.80;0.30;;;;;;;;;;5054445;28;20051;-75
2023/11/09 05:55:44;;;;;;;0.20;0.20;;;;;;;;;;5052745;28;20102;-75
2023/11/09 05:58:10;;;;;;;0.30;0.30;;;;;;;;;;5052188;28;20105;-76
2023/11/09 06:00:38;;;;;;;0.10;0.10;;;;;;;;;;5053853;28;20021;-76
2023/11/09 06:03:04;;;;;;;1.33;0.30;;;;;;;;;;5053957;28;20017;-76
2023/11/09 06:05:30;;;;;;;0.43;0.40;;;;;;;;;;5054450;28;20028;-76
2023/11/09 06:07:57;;;;;;;0.35;0.20;;;;;;;;;;5054120;28;20052;-76
2023/11/09 06:10:23;;;;;;;0.05;0.05;;;;;;;;;;5053921;28;20029;-76
2023/11/09 06:12:50;;;;;;;0.40;0.32;;;;;;;;;;5052035;28;20109;-76
2023/11/09 06:15:16;;;;;;;0.30;0.30;;;;;;;;;;5053097;28;20025;-77
2023/11/09 06:17:43;;;;;;;0.75;0.50;;;;;;;;;;5054164;28;20017;-75
2023/11/09 06:20:13;;;;;;;0.43;0.30;;;;;;;;;;5035977;28;20438;-76
2023/11/09 06:22:40;;;;;;;0.95;0.40;;;;;;;;;;5054437;28;20025;-75
2023/11/09 06:25:07;;;;;;;0.45;0.45;;;;;;;;;;5035927;28;20556;-76
2023/11/09 06:27:33;;;;;;;0.60;0.40;;;;;;;;;;5054203;28;20119;-76
2023/11/09 06:29:59;;;;;;;0.50;0.50;;;;;;;;;;5051843;28;20060;-77
2023/11/09 06:32:25;;;;;;;0.70;0.50;;;;;;;;;;5054340;28;20464;-76
2023/11/09 06:34:52;;;;;;;0.60;0.60;;;;;;;;;;5054464;28;20055;-77
2023/11/09 06:37:19;;;;;;;1.58;0.75;;;;;;;;;;5054384;28;20494;-76
2023/11/09 06:39:49;;;;;;;0.85;0.57;;;;;;;;;;5053238;28;20196;-76
2023/11/09 06:42:15;;;;;;;0.30;0.30;;;;;;;;;;5054995;28;20067;-77
2023/11/09 06:44:43;;;;;;;1.20;0.57;;;;;;;;;;5063641;28;20028;-77
2023/11/09 06:47:10;;;;;;;0.57;0.35;;;;;;;;;;5062556;28;20025;-76
2023/11/09 06:49:36;;;;;;;0.55;0.30;;;;;;;;;;5054518;28;20471;-76
2023/11/09 06:52:04;;;;;;;0.43;0.40;;;;;;;;;;5046305;28;20022;-76
2023/11/09 06:54:32;;;;;;;0.85;0.20;;;;;;;;;;5056248;28;20020;-76
2023/11/09 06:56:58;;;;;;;0.85;0.47;;;;;;;;;;5037536;28;20021;-77
2023/11/09 06:59:24;;;;;;;1.02;0.50;;;;;;;;;;5055920;28;20104;-76
2023/11/09 07:01:50;;;;;;;0.47;0.40;;;;;;;;;;5053387;28;20057;-76
2023/11/09 07:04:19;;;;;;;0.20;0.20;;;;;;;;;;5056012;28;20111;-75
2023/11/09 07:06:45;;;;;;;0.52;0.20;;;;;;;;;;5053852;28;20029;-75
2023/11/09 07:09:11;;;;;;;0.60;0.40;;;;;;;;;;5052968;28;20020;-76
2023/11/09 07:11:38;;;;;;;0.57;0.30;;;;;;;;;;5051471;28;20040;-76
2023/11/09 07:14:04;;;;;;;0.55;0.40;;;;;;;;;;5035100;28;20044;-76
2023/11/09 07:16:31;;;;;;;0.70;0.47;;;;;;;;;;5054749;28;20497;-76
2023/11/09 07:18:57;;;;;;;0.40;0.40;;;;;;;;;;5044660;28;20026;-76
2023/11/09 07:21:23;;;;;;;0.47;0.40;;;;;;;;;;5048733;28;20036;-76
2023/11/09 07:23:59;;;;;;;0.40;0.30;;;;;;;;;;5053159;28;20017;-76
2023/11/09 07:26:25;;;;;;;0.55;0.40;;;;;;;;;;5056925;28;20085;-75
2023/11/09 07:28:53;;;;;;;0.63;0.30;;;;;;;;;;5065676;28;20020;-77
2023/11/09 07:31:20;;;;;;;0.30;0.30;;;;;;;;;;5055959;28;20025;-76
2023/11/09 07:33:47;;;;;;;0.57;0.30;;;;;;;;;;5052934;28;20025;-76
2023/11/09 07:36:13;;;;;;;0.20;0.20;;;;;;;;;;5045199;28;20306;-78
2023/11/09 07:38:39;;;;;;;0.47;0.47;;;;;;;;;;5054099;28;20025;-76
2023/11/09 07:41:05;;;;;;;0.75;0.40;;;;;;;;;;5054837;28;20047;-75
2023/11/09 07:43:31;;;;;;;0.65;0.50;;;;;;;;;;5054704;28;20021;-76
2023/11/09 07:45:57;;;;;;;0.40;0.40;;;;;;;;;;5054391;28;20059;-77
2023/11/09 07:48:26;;;;;;;0.45;0.30;;;;;;;;;;5052437;28;20478;-76
2023/11/09 07:50:52;;;;;;;0.32;0.30;;;;;;;;;;5054476;28;20044;-75
2023/11/09 07:53:18;;;;;;;0.30;0.30;;;;;;;;;;5050666;28;20542;-76
2023/11/09 07:55:44;;;;;;;0.65;0.47;;;;;;;;;;5052273;28;20051;-76
2023/11/09 07:58:10;;;;;;;0.68;0.68;;;;;;;;;;5053649;28;20033;-75
2023/11/09 08:00:36;;;;;;;0.70;0.52;;;;;;;;;;5054761;28;20130;-76
2023/11/09 08:03:03;;;;;;;0.63;0.45;;;;;;;;;;5054384;28;20017;-76
2023/11/09 08:05:32;;;;;;;0.50;0.50;;;;;;;;;;5054006;28;20120;-77
2023/11/09 08:07:59;;;;;;;1.00;0.60;;;;;;;;;;5055479;28;20082;-76
2023/11/09 08:10:27;;;;;;;0.30;0.30;;;;;;;;;;5060402;28;20028;-76
2023/11/09 08:12:54;;;;;;;0.73;0.45;;;;;;;;;;5037281;28;20117;-75
2023/11/09 08:15:20;;;;;;;0.45;0.40;;;;;;;;;;5051618;28;20021;-76
2023/11/09 08:17:47;;;;;;;0.30;0.30;;;;;;;;;;5042226;28;20032;-76
2023/11/09 08:20:13;;;;;;;0.47;0.35;;;;;;;;;;5054349;28;20021;-77
2023/11/09 08:22:44;;;;;;;1.23;0.60;;;;;;;;;;5071209;28;20052;-76
2023/11/09 08:25:12;;;;;;;0.52;0.40;;;;;;;;;;5060100;28;20312;-77
2023/11/09 08:27:40;;;;;;;1.17;0.57;;;;;;;;;;5069843;28;20031;-75
2023/11/09 08:30:09;;;;;;;0.93;0.40;;;;;;;;;;5070800;28;20052;-75
2023/11/09 08:32:36;;;;;;;0.70;0.43;;;;;;;;;;5071368;28;20078;-75
2023/11/09 08:35:05;;;;;;;0.52;0.40;;;;;;;;;;5071926;28;20024;-75
2023/11/09 08:37:33;;;;;;;0.45;0.40;;;;;;;;;;5054604;28;20029;-76
2023/11/09 08:39:59;;;;;;;0.85;0.40;;;;;;;;;;5072415;28;20016;-76
2023/11/09 08:42:25;;;;;;;0.40;0.40;;;;;;;;;;5071072;28;20050;-76
2023/11/09 08:44:51;;;;;;;0.50;0.38;;;;;;;;;;5063324;28;20546;-77
2023/11/09 08:47:21;;;;;;;0.30;0.30;;;;;;;;;;5053992;28;20021;-76
2023/11/09 08:49:47;;;;;;;0.60;0.32;;;;;;;;;;5038918;28;20158;-76
2023/11/09 08:52:14;;;;;;;0.47;0.30;;;;;;;;;;5055024;28;20047;-76
2023/11/09 08:54:41;;;;;;;0.60;0.40;;;;;;;;;;5056095;28;20479;-77
2023/11/09 08:57:08;;;;;;;0.38;0.38;;;;;;;;;;5055253;28;20140;-76
2023/11/09 08:59:35;;;;;;;0.50;0.47;;;;;;;;;;5056639;28;20382;-77
2023/11/09 09:02:03;;;;;;;0.28;0.28;;;;;;;;;;5056755;28;20101;-77
2023/11/09 09:04:29;;;;;;;0.20;0.20;;;;;;;;;;5055441;28;20049;-78
2023/11/09 09:06:55;;;;;;;0.50;0.50;;;;;;;;;;5063460;28;20031;-77
2023/11/09 09:09:23;;;;;;;0.57;0.40;;;;;;;;;;5038476;28;20021;-77
2023/11/09 09:11:51;;;;;;;0.70;0.30;;;;;;;;;;5056452;28;20025;-76
2023/11/09 09:14:18;;;;;;;1.27;0.45;;;;;;;;;;5057516;28;20044;-77
2023/11/09 09:16:44;;;;;;;0.43;0.40;;;;;;;;;;5056187;28;20036;-77
2023/11/09 09:19:10;;;;;;;0.75;0.38;;;;;;;;;;5054036;28;20017;-77
2023/11/09 09:21:36;;;;;;;0.30;0.30;;;;;;;;;;5056569;28;20033;-77
2023/11/09 09:24:03;;;;;;;0.40;0.30;;;;;;;;;;5056803;28;20056;-77
2023/11/09 09:26:33;;;;;;;0.30;0.20;;;;;;;;;;5054272;28;20028;-77
2023/11/09 09:28:59;;;;;;;0.20;0.20;;;;;;;;;;5046284;28;20036;-77
2023/11/09 09:31:25;;;;;;;1.02;0.47;;;;;;;;;;5057589;28;20029;-77
2023/11/09 09:34:10;;;;;;;1.83;1.17;;;;;;;;;;5055790;28;20494;-77
2023/11/09 09:36:41;;;;;;;1.52;0.88;;;;;;;;;;5049549;28;20040;-77
2023/11/09 09:39:08;;;;;;;1.40;0.80;;;;;;;;;;5057238;28;20028;-77
2023/11/09 09:41:42;;;;;;;1.48;1.08;;;;;;;;;;5056388;28;20039;-77
2023/11/09 09:44:14;;;;;;;1.95;1.27;;;;;;;;;;5057593;28;20092;-77
2023/11/09 09:46:40;;;;;;;1.02;0.60;;;;;;;;;;5053260;28;20395;-77
2023/11/09 09:49:17;;;;;;;1.80;0.93;;;;;;;;;;5053737;28;20498;-77
2023/11/09 09:51:43;;;;;;;1.40;0.70;;;;;;;;;;5055041;28;20428;-77
2023/11/09 09:54:10;;;;;;;2.38;0.70;;;;;;;;;;5057363;28;20021;-77
2023/11/09 09:56:40;;;;;;;1.40;0.80;;;;;;;;;;5056785;28;20029;-77
2023/11/09 09:59:09;;;;;;;1.75;1.02;;;;;;;;;;5066643;28;20047;-77
2023/11/09 10:01:40;;;;;;;0.85;0.82;;;;;;;;;;5069917;28;20031;-77
2023/11/09 10:04:09;;;;;;;2.05;1.00;;;;;;;;;;5057388;28;20021;-75
2023/11/09 10:06:35;;;;;;;2.55;0.88;;;;;;;;;;5073864;28;20361;-75
2023/11/09 10:09:05;;;;;;;0.77;0.63;;;;;;;;;;5071755;28;20056;-76
2023/11/09 10:11:32;;;;;;;1.45;0.93;;;;;;;;;;5058734;28;20036;-75
2023/11/09 10:13:58;;;;;;;2.33;0.70;;;;;;;;;;5057530;28;20048;-77
2023/11/09 10:16:31;;;;;;;1.17;0.50;;;;;;;;;;5055619;28;20025;-75
2023/11/09 10:19:01;;;;;;;0.68;0.60;;;;;;;;;;5056217;28;20027;-77
2023/11/09 10:21:27;;;;;;;2.47;0.88;;;;;;;;;;5049572;28;20124;-76
2023/11/09 10:23:53;;;;;;;0.55;0.50;;;;;;;;;;5074579;28;20100;-75
2023/11/09 10:26:19;;;;;;;2.08;0.82;;;;;;;;;;5060722;28;20013;-76
2023/11/09 10:28:55;;;;;;;1.38;0.65;;;;;;;;;;5057882;28;20031;-76
2023/11/09 10:31:31;;;;;;;3.53;1.10;;;;;;;;;;5058091;28;20021;-77
2023/11/09 10:33:57;;;;;;;0.90;0.80;;;;;;;;;;5056546;28;20056;-75
2023/11/09 10:36:23;;;;;;;1.20;0.55;;;;;;;;;;5056057;28;20551;-76
2023/11/09 10:38:49;;;;;;;0.57;0.50;;;;;;;;;;5054357;28;20567;-75
2023/11/09 10:41:20;;;;;;;1.70;1.05;;;;;;;;;;5055610;28;20041;-76
2023/11/09 10:43:49;;;;;;;0.88;0.80;;;;;;;;;;5055946;28;20041;-77
2023/11/09 10:46:17;;;;;;;1.08;0.80;;;;;;;;;;5056496;28;20070;-76
2023/11/09 10:48:44;;;;;;;2.28;0.93;;;;;;;;;;5052987;28;20037;-76
2023/11/09 10:51:11;;;;;;;1.40;0.60;;;;;;;;;;5055111;28;20382;-76
2023/11/09 10:53:37;;;;;;;1.05;0.70;;;;;;;;;;5057220;28;20340;-75
2023/11/09 10:56:09;;;;;;;1.35;1.00;;;;;;;;;;5058570;28;20029;-75
2023/11/09 10:58:40;;;;;;;1.67;0.80;;;;;;;;;;5063852;28;20020;-75
2023/11/09 11:01:10;;;;;;;3.05;1.15;;;;;;;;;;5065212;28;20029;-76
2023/11/09 11:03:41;;;;;;;1.13;1.00;;;;;;;;;;5060315;28;20040;-76
2023/11/09 11:06:16;;;;;;;2.03;0.88;;;;;;;;;;5074470;28;20032;-76
2023/11/09 11:08:44;;;;;;;1.65;1.20;;;;;;;;;;5035117;28;20451;-77
2023/11/09 11:11:16;;;;;;;1.40;0.93;;;;;;;;;;5059492;28;20068;-76
2023/11/09 11:13:44;;;;;;;0.85;0.77;;;;;;;;;;5043548;28;20123;-76
2023/11/09 11:16:36;;;;;;;1.00;0.80;;;;;;;;;;5056071;28;20044;-76
2023/11/09 11:19:17;;;;;;;1.38;0.80;;;;;;;;;;5002320;28;20433;-77
2023/11/09 11:21:49;;;;;;;1.45;0.60;;;;;;;;;;5054726;28;20125;-76
2023/11/09 11:24:34;;;;;;;0.77;0.70;;;;;;;;;;5038715;28;20264;-77
2023/11/09 11:27:19;;;;;;;1.23;0.50;;;;;;;;;;5060117;28;20041;-77
2023/11/09 11:29:46;;;;;;;0.95;0.70;;;;;;;;;;5058030;28;20387;-76
2023/11/09 11:32:16;;;;;;;0.65;0.65;;;;;;;;;;5059653;28;20063;-77
2023/11/09 11:35:01;;;;;;;1.45;0.95;;;;;;;;;;5057574;28;20078;-77
2023/11/09 11:37:32;;;;;;;2.50;0.63;;;;;;;;;;5057825;28;20040;-76
2023/11/09 11:40:05;;;;;;;0.60;0.60;;;;;;;;;;5046434;28;20036;-76
2023/11/09 11:42:34;;;;;;;0.80;0.80;;;;;;;;;;5054341;28;20476;-76
2023/11/09 11:45:00;;;;;;;0.70;0.70;;;;;;;;;;5035451;28;20048;-77
2023/11/09 11:47:30;;;;;;;0.95;0.95;;;;;;;;;;5053950;28;20082;-76
2023/11/09 11:50:09;;;;;;;1.63;0.70;;;;;;;;;;5048675;28;20025;-76
2023/11/09 11:52:35;;;;;;;1.08;0.77;;;;;;;;;;5052425;28;20479;-76
2023/11/09 11:55:04;;;;;;;1.50;1.20;;;;;;;;;;5055174;28;20025;-77
2023/11/09 11:57:34;;;;;;;0.63;0.60;;;;;;;;;;5054063;28;20033;-76
2023/11/09 12:00:04;;;;;;;1.15;0.98;;;;;;;;;;5054438;28;20047;-76
2023/11/09 12:02:30;;;;;;;0.60;0.50;;;;;;;;;;5052612;28;20021;-76
2023/11/09 12:04:57;;;;;;;0.85;0.75;;;;;;;;;;5054004;28;20243;-76
2023/11/09 12:07:26;;;;;;;1.48;0.70;;;;;;;;;;5052262;28;20021;-77
2023/11/09 12:09:55;;;;;;;2.55;0.80;;;;;;;;;;5035607;28;20032;-77
2023/11/09 12:12:26;;;;;;;0.80;0.80;;;;;;;;;;5051537;28;20115;-77
2023/11/09 12:14:53;;;;;;;0.85;0.80;;;;;;;;;;5054556;28;20036;-76
2023/11/09 12:17:23;;;;;;;1.45;0.73;;;;;;;;;;5051448;28;20031;-77
2023/11/09 12:19:51;;;;;;;0.70;0.70;;;;;;;;;;5047682;28;20061;-77
2023/11/09 12:22:17;;;;;;;1.30;0.77;;;;;;;;;;5054815;28;20071;-75
2023/11/09 12:24:44;;;;;;;5.10;1.02;;;;;;;;;;5057769;28;20100;-75
2023/11/09 12:27:11;;;;;;;0.77;0.77;;;;;;;;;;5057799;28;20064;-76
2023/11/09 12:29:41;;;;;;;4.45;0.80;;;;;;;;;;5051268;28;20139;-76
2023/11/09 12:32:08;;;;;;;0.98;0.88;;;;;;;;;;5050853;28;20033;-76
2023/11/09 12:34:37;;;;;;;0.80;0.70;;;;;;;;;;5052329;28;20110;-77
2023/11/09 12:37:03;;;;;;;0.68;0.68;;;;;;;;;;5060654;28;20029;-77
2023/11/09 12:39:31;;;;;;;0.60;0.60;;;;;;;;;;5056122;28;20131;-77
2023/11/09 12:41:58;;;;;;;0.75;0.75;;;;;;;;;;5042116;28;20017;-77
2023/11/09 12:44:24;;;;;;;0.93;0.50;;;;;;;;;;5061200;28;20380;-77
2023/11/09 12:46:55;;;;;;;0.40;0.40;;;;;;;;;;5059752;28;20041;-76
2023/11/09 12:49:26;;;;;;;0.60;0.50;;;;;;;;;;5048344;28;20032;-76
2023/11/09 12:51:53;;;;;;;0.50;0.50;;;;;;;;;;5059096;28;20021;-76
2023/11/09 12:54:19;;;;;;;0.75;0.50;;;;;;;;;;5059567;28;20461;-75
2023/11/09 12:56:46;;;;;;;0.68;0.55;;;;;;;;;;5058664;28;20071;-77
2023/11/09 12:59:14;;;;;;;1.98;0.65;;;;;;;;;;5059159;28;20032;-77
2023/11/09 13:01:41;;;;;;;1.25;0.60;;;;;;;;;;5062352;28;20047;-76
2023/11/09 13:04:21;;;;;;;0.77;0.63;;;;;;;;;;5063339;28;20047;-77
2023/11/09 13:06:48;;;;;;;0.52;0.52;;;;;;;;;;5056922;28;20074;-76
2023/11/09 13:12:26;;;;;;;0.60;0.60;;;;;;;;;;5057878;28;20044;-76
2023/11/09 13:14:41;;;;;;;1.60;1.00;;;;;;;;;;5058037;28;20059;-77
2023/11/09 13:17:16;;;;;;;1.45;0.68;;;;;;;;;;5071049;28;20044;-75
2023/11/09 13:19:46;;;;;;;1.20;0.73;;;;;;;;;;5035866;28;20112;-76
2023/11/09 13:22:15;;;;;;;0.77;0.60;;;;;;;;;;5057417;28;20025;-77
2023/11/09 13:24:42;;;;;;;0.98;0.70;;;;;;;;;;5057423;28;20388;-75
2023/11/09 13:27:19;;;;;;;0.50;0.50;;;;;;;;;;5056410;28;20086;-76
2023/11/09 13:29:45;;;;;;;0.85;0.57;;;;;;;;;;5049394;28;20064;-76
2023/11/09 13:32:19;;;;;;;0.90;0.82;;;;;;;;;;5055109;28;20025;-76
2023/11/09 13:34:54;;;;;;;0.60;0.60;;;;;;;;;;5055650;28;20349;-76
2023/11/09 13:37:35;;;;;;;0.80;0.60;;;;;;;;;;5037058;28;20025;-76
2023/11/09 13:42:46;;;;;;;0.73;0.70;;;;;;;;;;5055491;28;20514;-76
2023/11/09 13:45:34;;;;;;;0.52;0.52;;;;;;;;;;5055151;28;20025;-77
2023/11/09 13:48:07;;;;;;;0.75;0.40;;;;;;;;;;5054710;28;20021;-77
2023/11/09 13:50:36;;;;;;;0.77;0.50;;;;;;;;;;5052934;28;20017;-76
2023/11/09 13:53:11;;;;;;;0.52;0.50;;;;;;;;;;5053504;28;20029;-76
2023/11/09 13:58:25;;;;;;;0.40;0.40;;;;;;;;;;5054207;28;20059;-77
2023/11/09 14:00:59;;;;;;;0.47;0.47;;;;;;;;;;5046483;28;20045;-76
2023/11/09 14:03:25;;;;;;;0.85;0.47;;;;;;;;;;5046132;28;20025;-77
2023/11/09 14:05:51;;;;;;;0.32;0.30;;;;;;;;;;5055071;28;20013;-77
2023/11/09 14:08:20;;;;;;;0.75;0.50;;;;;;;;;;5053693;28;20085;-77
2023/11/09 14:10:49;;;;;;;0.40;0.40;;;;;;;;;;5051532;28;20014;-77
2023/11/09 14:13:24;;;;;;;0.50;0.50;;;;;;;;;;5063013;28;20043;-77
2023/11/09 14:15:52;;;;;;;0.35;0.35;;;;;;;;;;5055429;28;20023;-77
2023/11/09 14:21:09;;;;;;;0.65;0.63;;;;;;;;;;5054086;28;20097;-76
2023/11/09 14:23:37;;;;;;;0.60;0.60;;;;;;;;;;5048000;28;20395;-76
2023/11/09 14:26:04;;;;;;;0.45;0.45;;;;;;;;;;5052913;28;20021;-76
2023/11/09 14:28:32;;;;;;;0.40;0.30;;;;;;;;;;5035501;28;20107;-76
2023/11/09 14:30:59;;;;;;;0.40;0.40;;;;;;;;;;5051998;28;20093;-76
2023/11/09 14:33:27;;;;;;;0.30;0.30;;;;;;;;;;5052485;28;20106;-76
2023/11/09 14:35:58;;;;;;;0.30;0.30;;;;;;;;;;5052890;28;20451;-76
2023/11/09 14:38:25;;;;;;;0.30;0.30;;;;;;;;;;5038093;28;20038;-76
2023/11/09 14:40:54;;;;;;;0.30;0.30;;;;;;;;;;5054987;28;20203;-77
2023/11/09 14:43:20;;;;;;;0.60;0.32;;;;;;;;;;5049800;28;20043;-76
2023/11/09 14:45:48;;;;;;;0.38;0.38;;;;;;;;;;5054699;28;20108;-76
2023/11/09 14:48:15;;;;;;;0.30;0.30;;;;;;;;;;5054932;28;20051;-75
2023/11/09 14:50:41;;;;;;;0.28;0.28;;;;;;;;;;5055766;28;20025;-77
2023/11/09 14:55:34;;;;;;;0.32;0.30;;;;;;;;;;5055176;28;20036;-75
2023/11/09 14:58:07;;;;;;;0.43;0.25;;;;;;;;;;5054266;28;20025;-76
2023/11/09 15:00:33;;;;;;;0.25;0.25;;;;;;;;;;5054812;28;20025;-78
2023/11/09 15:03:00;;;;;;;0.20;0.20;;;;;;;;;;5029687;28;20021;-76
2023/11/09 15:05:28;;;;;;;0.40;0.30;;;;;;;;;;5057443;28;20064;-77
2023/11/09 15:07:55;;;;;;;0.30;0.30;;;;;;;;;;5060104;28;20248;-76
2023/11/09 15:10:27;;;;;;;0.30;0.30;;;;;;;;;;5066601;28;20032;-76